Time;durP1;ratioP1;P1;durP2;ratioP2;P2;SDS_P1;SDS_P2;PMS_P1;PMS_P2;Temp;Humidity;BMP_temperature;BMP_pressure;BME280_temperature;BME280_humidity;BME280_pressure;Samples;Min_cycle;Max_cycle;Signal;HPM_P1;HPM_P2
2023/06/27 00:02:26;;;;;;;8.13;1.90;;;16.60;99.90;;;;;;4991957;28;20966;-51
2023/06/27 00:04:56;;;;;;;5.90;1.87;;;16.60;99.90;;;;;;4992572;28;20464;-50
2023/06/27 00:07:27;;;;;;;8.07;2.30;;;16.50;98.80;;;;;;4987880;28;20496;-50
2023/06/27 00:09:54;;;;;;;5.20;2.13;;;16.50;99.50;;;;;;4989857;28;20457;-51
2023/06/27 00:12:21;;;;;;;5.60;2.23;;;16.50;96.20;;;;;;4988954;28;20492;-50
2023/06/27 00:14:49;;;;;;;7.70;2.10;;;16.40;94.50;;;;;;4990010;28;20492;-50
2023/06/27 00:17:16;;;;;;;6.63;2.30;;;16.40;90.40;;;;;;4991434;28;20574;-50
2023/06/27 00:19:44;;;;;;;11.63;2.70;;;16.30;86.60;;;;;;4991284;28;20452;-51
2023/06/27 00:22:11;;;;;;;6.60;2.17;;;16.30;85.00;;;;;;4989836;28;20543;-50
2023/06/27 00:24:39;;;;;;;3.93;2.03;;;16.30;82.60;;;;;;4990082;28;20469;-50
2023/06/27 00:27:06;;;;;;;10.80;2.17;;;16.30;81.80;;;;;;4990575;28;20496;-51
2023/06/27 00:29:34;;;;;;;3.93;1.90;;;16.30;75.20;;;;;;4990396;28;20489;-51
2023/06/27 00:32:01;;;;;;;12.80;2.00;;;16.20;78.00;;;;;;4987424;28;20488;-50
2023/06/27 00:34:28;;;;;;;7.70;2.97;;;16.20;73.50;;;;;;4990803;28;20500;-50
2023/06/27 00:36:55;;;;;;;10.03;2.23;;;16.10;75.20;;;;;;4991277;28;21030;-51
2023/06/27 00:39:21;;;;;;;9.40;2.73;;;16.10;73.50;;;;;;4988843;28;20496;-50
2023/06/27 00:41:48;;;;;;;5.57;2.03;;;16.10;66.00;;;;;;4989524;28;20464;-50
2023/06/27 00:44:14;;;;;;;9.00;2.30;;;16.00;65.20;;;;;;4991061;28;20519;-51
2023/06/27 00:46:42;;;;;;;7.13;2.87;;;16.00;59.00;;;;;;4987361;28;20513;-51
2023/06/27 00:49:12;;;;;;;5.07;2.03;;;15.90;57.70;;;;;;4989799;28;20456;-51
2023/06/27 00:51:40;;;;;;;8.63;2.20;;;15.90;52.30;;;;;;4989674;28;20508;-51
2023/06/27 00:54:07;;;;;;;6.83;2.07;;;15.80;53.50;;;;;;4995507;28;20890;-50
2023/06/27 00:56:35;;;;;;;3.93;1.83;;;15.80;47.50;;;;;;4983288;28;20492;-50
2023/06/27 00:59:03;;;;;;;9.60;2.70;;;15.80;42.50;;;;;;4989888;28;20894;-49
2023/06/27 01:01:30;;;;;;;3.20;1.73;;;15.70;40.20;;;;;;4985029;28;20804;-51
2023/06/27 01:03:56;;;;;;;9.80;1.90;;;15.70;34.70;;;;;;4989798;28;20812;-50
2023/06/27 01:06:31;;;;;;;8.93;2.10;;;15.60;30.50;;;;;;4995045;28;20527;-50
2023/06/27 01:09:03;;;;;;;13.20;2.20;;;15.50;24.90;;;;;;4991565;28;20471;-50
2023/06/27 01:11:35;;;;;;;6.43;2.37;;;15.50;23.20;;;;;;4994971;28;20849;-51
2023/06/27 01:14:04;;;;;;;5.23;2.30;;;15.50;23.00;;;;;;4994183;28;20488;-50
2023/06/27 01:16:32;;;;;;;4.27;2.00;;;15.50;22.10;;;;;;4994376;28;20471;-50
2023/06/27 01:19:01;;;;;;;16.23;2.73;;;15.40;91.00;;;;;;4990737;28;20538;-51
2023/06/27 01:21:31;;;;;;;3.17;1.87;;;15.40;99.90;;;;;;4994522;28;20475;-51
2023/06/27 01:24:02;;;;;;;9.53;2.70;;;15.40;99.90;;;;;;4995388;28;20539;-50
2023/06/27 01:26:29;;;;;;;9.33;2.50;;;15.40;99.90;;;;;;4995711;28;20488;-51
2023/06/27 01:28:55;;;;;;;5.53;2.20;;;15.40;99.90;;;;;;4994853;28;20488;-51
2023/06/27 01:31:27;;;;;;;11.10;2.43;;;15.40;99.90;;;;;;4993435;28;20507;-50
2023/06/27 01:33:59;;;;;;;6.17;2.30;;;15.40;99.90;;;;;;4994914;28;20453;-50
2023/06/27 01:36:33;;;;;;;6.30;2.20;;;15.30;99.90;;;;;;4989246;28;20453;-50
2023/06/27 01:39:07;;;;;;;5.60;2.67;;;15.30;99.90;;;;;;4991991;28;20941;-51
2023/06/27 01:41:38;;;;;;;7.13;2.63;;;15.30;99.90;;;;;;4994887;28;20468;-50
2023/06/27 01:44:06;;;;;;;11.03;2.70;;;15.30;99.90;;;;;;4994358;28;20993;-50
2023/06/27 01:46:34;;;;;;;6.70;2.43;;;15.30;99.90;;;;;;4993861;28;20488;-50
2023/06/27 01:49:02;;;;;;;4.97;2.40;;;15.20;99.90;;;;;;4987022;28;20461;-50
2023/06/27 01:51:29;;;;;;;5.43;2.10;;;15.20;99.90;;;;;;4994239;28;21006;-51
2023/06/27 01:53:56;;;;;;;4.20;2.70;;;15.20;99.90;;;;;;4989160;28;20484;-50
2023/06/27 01:56:24;;;;;;;14.43;2.47;;;15.10;99.90;;;;;;4994448;28;20496;-51
2023/06/27 01:58:51;;;;;;;8.80;2.60;;;15.10;99.90;;;;;;4992301;28;20523;-51
2023/06/27 02:01:17;;;;;;;7.70;2.77;;;15.10;99.90;;;;;;4993137;28;20936;-50
2023/06/27 02:03:44;;;;;;;13.60;2.60;;;15.00;99.90;;;;;;4996681;28;20476;-50
2023/06/27 02:06:11;;;;;;;20.03;3.00;;;15.00;99.90;;;;;;4992388;28;20481;-51
2023/06/27 02:08:37;;;;;;;8.17;2.73;;;15.00;99.90;;;;;;4988126;28;20485;-50
2023/06/27 02:11:04;;;;;;;11.50;2.47;;;15.00;99.90;;;;;;4993896;28;20950;-51
2023/06/27 02:13:37;;;;;;;7.77;3.03;;;15.00;99.90;;;;;;4991366;28;20468;-51
2023/06/27 02:16:04;;;;;;;4.53;2.57;;;14.90;99.90;;;;;;4994012;28;20928;-52
2023/06/27 02:18:31;;;;;;;11.73;2.70;;;14.90;99.90;;;;;;5019751;22;20606;-50
2023/06/27 02:20:57;;;;;;;9.73;3.10;;;14.90;99.90;;;;;;5014503;28;20526;-50
2023/06/27 02:23:25;;;;;;;7.13;2.63;;;14.90;99.90;;;;;;5013780;28;20574;-51
2023/06/27 02:25:51;;;;;;;5.10;2.63;;;14.90;99.90;;;;;;5014049;28;20498;-51
2023/06/27 02:28:18;;;;;;;10.17;3.10;;;14.80;99.90;;;;;;5003585;28;20566;-51
2023/06/27 02:30:46;;;;;;;9.53;2.73;;;14.80;99.90;;;;;;5015680;28;20555;-51
2023/06/27 02:33:12;;;;;;;11.80;2.60;;;14.80;99.90;;;;;;5010599;28;20546;-51
2023/06/27 02:35:39;;;;;;;8.90;2.80;;;14.80;99.90;;;;;;5010538;28;20488;-50
2023/06/27 02:38:05;;;;;;;12.90;2.77;;;14.70;99.90;;;;;;5011086;28;20555;-51
2023/06/27 02:40:32;;;;;;;7.80;3.00;;;14.70;99.90;;;;;;5010946;28;21591;-51
2023/06/27 02:42:59;;;;;;;6.60;2.43;;;14.70;99.90;;;;;;5010274;28;20551;-51
2023/06/27 02:45:25;;;;;;;8.50;3.40;;;14.70;99.90;;;;;;5020034;28;20478;-50
2023/06/27 02:47:53;;;;;;;14.43;4.07;;;14.60;99.90;;;;;;5027511;28;20488;-50
2023/06/27 02:50:20;;;;;;;6.53;2.87;;;14.60;99.90;;;;;;5009927;28;20900;-51
2023/06/27 02:52:46;;;;;;;7.70;2.93;;;14.60;99.90;;;;;;4995657;28;20486;-50
2023/06/27 02:55:13;;;;;;;10.47;3.20;;;14.60;99.90;;;;;;5009553;28;20540;-50
2023/06/27 02:57:39;;;;;;;7.20;2.57;;;14.60;99.90;;;;;;5010556;28;20479;-51
2023/06/27 03:00:09;;;;;;;11.77;3.27;;;14.60;99.90;;;;;;5007023;28;20543;-51
2023/06/27 03:02:36;;;;;;;7.67;2.97;;;14.50;99.90;;;;;;5004941;28;20468;-51
2023/06/27 03:05:04;;;;;;;8.50;3.23;;;14.50;99.90;;;;;;5031066;28;20546;-50
2023/06/27 03:07:31;;;;;;;12.63;2.80;;;14.50;99.90;;;;;;4997699;28;20617;-50
2023/06/27 03:09:57;;;;;;;9.63;2.97;;;14.50;99.90;;;;;;5008793;28;20541;-50
2023/06/27 03:12:24;;;;;;;8.50;2.90;;;14.50;99.90;;;;;;5010815;28;20491;-50
2023/06/27 03:14:50;;;;;;;8.60;2.87;;;14.50;99.90;;;;;;5006607;28;20555;-51
2023/06/27 03:17:17;;;;;;;5.20;2.80;;;14.40;99.90;;;;;;5009194;28;21028;-51
2023/06/27 03:19:43;;;;;;;10.80;3.60;;;14.50;99.90;;;;;;5008687;28;20503;-51
2023/06/27 03:22:11;;;;;;;14.80;4.23;;;14.40;99.90;;;;;;5010301;28;20539;-49
2023/06/27 03:24:38;;;;;;;8.40;3.10;;;14.40;99.90;;;;;;5006304;28;20559;-49
2023/06/27 03:27:05;;;;;;;9.47;3.30;;;14.40;99.90;;;;;;5013032;28;20662;-51
2023/06/27 03:29:31;;;;;;;18.67;3.77;;;14.40;99.90;;;;;;5010139;28;20547;-50
2023/06/27 03:31:58;;;;;;;10.07;2.73;;;14.40;99.90;;;;;;5011306;28;20898;-52
2023/06/27 03:34:24;;;;;;;5.93;2.50;;;14.40;99.90;;;;;;5020573;28;20488;-51
2023/06/27 03:36:51;;;;;;;7.00;3.30;;;14.40;99.90;;;;;;5012853;28;20444;-51
2023/06/27 03:39:19;;;;;;;10.43;3.00;;;14.40;99.90;;;;;;5011820;28;20655;-50
2023/06/27 03:41:45;;;;;;;10.47;2.73;;;14.40;99.90;;;;;;5005534;28;20544;-52
2023/06/27 03:44:12;;;;;;;18.50;3.00;;;14.40;99.90;;;;;;5010666;28;20547;-51
2023/06/27 03:46:38;;;;;;;12.97;2.93;;;14.40;99.90;;;;;;5012780;28;20478;-53
2023/06/27 03:49:05;;;;;;;8.00;3.30;;;14.40;99.90;;;;;;5009833;28;20555;-51
2023/06/27 03:51:33;;;;;;;8.90;3.30;;;14.40;99.90;;;;;;5012024;28;20891;-52
2023/06/27 03:54:02;;;;;;;10.53;2.77;;;14.40;99.90;;;;;;5006347;28;20551;-51
2023/06/27 03:56:29;;;;;;;11.13;2.97;;;14.50;99.90;;;;;;4998477;28;20461;-52
2023/06/27 03:58:56;;;;;;;17.03;3.13;;;14.50;99.90;;;;;;4998821;28;20567;-51
2023/06/27 04:01:22;;;;;;;12.70;3.57;;;14.50;99.90;;;;;;5011601;28;20927;-52
2023/06/27 04:03:49;;;;;;;8.40;2.80;;;14.50;99.90;;;;;;5007210;28;20886;-51
2023/06/27 04:06:16;;;;;;;13.13;3.00;;;14.50;99.90;;;;;;5006580;28;20993;-52
2023/06/27 04:08:42;;;;;;;13.87;3.60;;;14.50;99.90;;;;;;5009176;28;20587;-52
2023/06/27 04:11:09;;;;;;;13.17;3.53;;;14.50;99.90;;;;;;5012399;28;20523;-51
2023/06/27 04:13:37;;;;;;;11.13;3.13;;;14.50;99.90;;;;;;5008943;28;20884;-51
2023/06/27 04:16:04;;;;;;;9.87;2.90;;;14.50;99.90;;;;;;5003530;28;20618;-51
2023/06/27 04:18:30;;;;;;;9.73;3.07;;;14.60;99.90;;;;;;5004275;28;20570;-51
2023/06/27 04:20:58;;;;;;;14.73;4.07;;;14.60;99.90;;;;;;5008723;28;20480;-51
2023/06/27 04:23:25;;;;;;;9.83;2.93;;;14.60;99.90;;;;;;5013285;28;20468;-51
2023/06/27 04:26:02;;;;;;;15.03;3.47;;;14.60;99.90;;;;;;5014281;28;21037;-52
2023/06/27 04:28:29;;;;;;;11.10;3.27;;;14.70;99.90;;;;;;4997870;28;20484;-50
2023/06/27 04:30:57;;;;;;;12.43;3.33;;;14.80;99.90;;;;;;5002513;28;20503;-51
2023/06/27 04:33:23;;;;;;;11.37;3.13;;;14.70;99.90;;;;;;5022573;28;20455;-50
2023/06/27 04:35:50;;;;;;;11.50;3.30;;;14.80;99.90;;;;;;5008856;28;21047;-51
2023/06/27 04:38:16;;;;;;;13.07;3.53;;;14.80;99.90;;;;;;5007325;28;20507;-49
2023/06/27 04:40:43;;;;;;;15.60;3.63;;;14.80;99.90;;;;;;5010373;28;20545;-50
2023/06/27 04:43:10;;;;;;;11.47;3.27;;;14.90;99.90;;;;;;5007901;28;20487;-51
2023/06/27 04:45:36;;;;;;;12.03;3.37;;;14.90;99.90;;;;;;5009321;28;20491;-50
2023/06/27 04:48:04;;;;;;;8.27;3.40;;;14.90;99.90;;;;;;5008777;28;20575;-49
2023/06/27 04:50:31;;;;;;;12.33;3.30;;;14.90;99.90;;;;;;5007733;28;20467;-50
2023/06/27 04:52:57;;;;;;;7.97;3.23;;;14.90;99.90;;;;;;5011291;28;20459;-50
2023/06/27 04:55:24;;;;;;;16.30;3.17;;;14.90;99.90;;;;;;4995717;28;20481;-50
2023/06/27 04:57:51;;;;;;;10.57;3.40;;;14.90;99.90;;;;;;5002807;28;20559;-50
2023/06/27 05:00:19;;;;;;;12.10;3.50;;;14.90;99.90;;;;;;5010057;28;20468;-50
2023/06/27 05:02:45;;;;;;;29.50;3.73;;;15.00;99.90;;;;;;5011308;28;20440;-49
2023/06/27 05:05:13;;;;;;;11.33;3.37;;;15.00;99.90;;;;;;5009272;28;20555;-50
2023/06/27 05:07:40;;;;;;;13.57;3.37;;;15.10;99.90;;;;;;5008571;28;20531;-49
2023/06/27 05:10:07;;;;;;;14.23;3.03;;;15.10;99.90;;;;;;5005038;28;20535;-50
2023/06/27 05:12:34;;;;;;;12.43;4.00;;;15.10;99.90;;;;;;5003974;28;20466;-50
2023/06/27 05:15:00;;;;;;;18.57;3.43;;;15.10;99.90;;;;;;5011586;28;21045;-51
2023/06/27 05:17:27;;;;;;;18.00;3.97;;;15.20;99.90;;;;;;5002164;28;20520;-50
2023/06/27 05:19:53;;;;;;;15.30;4.00;;;15.10;99.90;;;;;;5011912;28;20503;-51
2023/06/27 05:22:21;;;;;;;13.83;3.80;;;15.20;99.90;;;;;;5008194;28;20543;-53
2023/06/27 05:24:48;;;;;;;10.47;3.10;;;15.20;99.90;;;;;;5009832;28;20949;-53
2023/06/27 05:27:14;;;;;;;19.50;3.63;;;15.30;99.90;;;;;;5005719;28;21149;-53
2023/06/27 05:29:41;;;;;;;9.90;2.70;;;15.40;99.90;;;;;;5008822;28;20901;-51
2023/06/27 05:32:08;;;;;;;18.80;2.87;;;15.50;99.90;;;;;;5010682;28;20523;-51
2023/06/27 05:34:35;;;;;;;15.60;3.10;;;15.50;99.90;;;;;;5009873;28;20555;-50
2023/06/27 05:37:01;;;;;;;11.33;3.10;;;15.50;99.90;;;;;;5008466;28;20534;-52
2023/06/27 05:39:29;;;;;;;8.27;2.87;;;15.50;99.90;;;;;;5004698;28;21029;-53
2023/06/27 05:41:55;;;;;;;12.20;3.73;;;15.60;99.90;;;;;;5003153;28;20546;-52
2023/06/27 05:44:22;;;;;;;22.20;4.83;;;15.60;99.90;;;;;;5003617;28;21242;-53
2023/06/27 05:46:48;;;;;;;15.57;3.20;;;15.60;99.90;;;;;;5003565;28;20551;-52
2023/06/27 05:49:17;;;;;;;18.80;3.03;;;15.60;99.90;;;;;;5009426;28;20487;-52
2023/06/27 05:51:43;;;;;;;15.20;3.60;;;15.70;88.00;;;;;;5009230;28;20460;-53
2023/06/27 05:54:10;;;;;;;13.03;3.23;;;15.70;20.00;;;;;;5013428;28;20496;-54
2023/06/27 05:56:38;;;;;;;8.00;2.47;;;15.80;29.40;;;;;;5009077;28;20495;-53
2023/06/27 05:59:05;;;;;;;24.10;3.23;;;15.80;85.90;;;;;;5012347;28;20452;-52
2023/06/27 06:01:32;;;;;;;9.33;2.90;;;15.90;23.60;;;;;;5008217;28;20468;-52
2023/06/27 06:03:58;;;;;;;11.73;3.70;;;15.90;77.20;;;;;;5011922;28;20896;-53
2023/06/27 06:06:25;;;;;;;18.07;3.97;;;16.00;35.50;;;;;;5009004;28;20500;-51
2023/06/27 06:08:51;;;;;;;16.67;3.20;;;16.00;42.10;;;;;;5007150;28;20643;-52
2023/06/27 06:11:18;;;;;;;16.67;3.23;;;16.00;39.00;;;;;;5013656;28;20483;-52
2023/06/27 06:13:46;;;;;;;27.90;3.67;;;16.10;43.00;;;;;;5008398;28;20583;-53
2023/06/27 06:16:13;;;;;;;9.77;3.23;;;16.10;50.40;;;;;;5013155;28;20456;-52
2023/06/27 06:18:39;;;;;;;11.67;2.90;;;16.10;42.00;;;;;;5006032;28;20542;-52
2023/06/27 06:21:07;;;;;;;20.00;3.17;;;16.20;43.00;;;;;;5007648;28;20551;-53
2023/06/27 06:23:33;;;;;;;20.43;2.80;;;16.20;37.60;;;;;;5010829;28;20965;-52
2023/06/27 06:26:00;;;;;;;15.40;4.00;;;16.20;50.80;;;;;;5004926;28;20550;-52
2023/06/27 06:28:27;;;;;;;11.83;2.40;;;16.20;48.70;;;;;;5009626;28;20494;-52
2023/06/27 06:30:54;;;;;;;9.03;3.17;;;16.30;42.60;;;;;;5009164;28;20586;-52
2023/06/27 06:33:24;;;;;;;14.93;2.83;;;16.40;50.80;;;;;;5003695;28;20503;-52
2023/06/27 06:35:50;;;;;;;13.43;3.53;;;16.50;55.60;;;;;;5010498;28;20446;-53
2023/06/27 06:38:17;;;;;;;18.57;3.80;;;16.50;57.80;;;;;;5006867;28;20511;-52
2023/06/27 06:40:44;;;;;;;10.70;3.00;;;16.60;60.20;;;;;;5009286;28;20500;-52
2023/06/27 06:43:10;;;;;;;10.13;2.80;;;16.70;61.80;;;;;;5010195;28;20502;-51
2023/06/27 06:45:37;;;;;;;12.77;2.93;;;16.80;68.90;;;;;;5008752;28;21609;-52
2023/06/27 06:48:05;;;;;;;10.53;2.33;;;16.70;76.20;;;;;;5006358;28;20560;-52
2023/06/27 06:50:32;;;;;;;12.73;2.93;;;16.60;79.50;;;;;;5006755;28;20570;-52
2023/06/27 06:52:59;;;;;;;12.57;2.70;;;16.60;70.00;;;;;;5009165;28;20970;-52
2023/06/27 06:55:25;;;;;;;9.93;2.47;;;16.70;77.40;;;;;;5008568;28;20617;-52
2023/06/27 06:57:52;;;;;;;12.23;2.47;;;16.80;79.10;;;;;;5006590;28;20506;-51
2023/06/27 07:00:20;;;;;;;12.90;2.97;;;17.00;82.20;;;;;;5010489;28;20468;-52
2023/06/27 07:02:46;;;;;;;13.27;2.77;;;17.00;77.90;;;;;;5011182;28;20462;-52
2023/06/27 07:05:14;;;;;;;18.30;3.97;;;17.10;91.80;;;;;;5007166;28;21014;-53
2023/06/27 07:07:41;;;;;;;8.53;3.13;;;17.10;87.40;;;;;;5008571;28;20585;-52
2023/06/27 07:10:08;;;;;;;6.67;1.90;;;17.10;99.90;;;;;;5012240;28;20498;-53
2023/06/27 07:12:35;;;;;;;14.27;2.60;;;17.10;99.90;;;;;;5012883;28;20508;-53
2023/06/27 07:15:01;;;;;;;8.23;2.60;;;17.30;99.90;;;;;;5010584;28;20538;-53
2023/06/27 07:17:28;;;;;;;9.77;2.70;;;17.30;99.90;;;;;;5001179;28;20575;-51
2023/06/27 07:19:54;;;;;;;6.57;2.00;;;17.30;99.90;;;;;;5010297;28;20480;-51
2023/06/27 07:22:22;;;;;;;8.80;2.67;;;17.20;99.90;;;;;;5009578;28;21036;-52
2023/06/27 07:24:49;;;;;;;7.43;2.70;;;17.10;99.90;;;;;;5008117;28;20477;-52
2023/06/27 07:27:15;;;;;;;16.60;3.37;;;17.20;99.90;;;;;;5004480;28;20555;-53
2023/06/27 07:29:42;;;;;;;10.47;2.73;;;17.30;99.90;;;;;;5010559;28;20579;-53
2023/06/27 07:32:11;;;;;;;9.93;2.50;;;17.40;99.90;;;;;;5012479;28;20491;-53
2023/06/27 07:34:39;;;;;;;7.97;2.20;;;17.50;99.90;;;;;;5012583;28;20506;-52
2023/06/27 07:37:06;;;;;;;6.23;1.63;;;17.60;99.90;;;;;;5012108;28;20506;-52
2023/06/27 07:39:34;;;;;;;18.20;2.40;;;17.60;99.90;;;;;;5011699;28;21037;-53
2023/06/27 07:42:01;;;;;;;7.13;2.10;;;17.50;99.90;;;;;;5007923;28;21081;-52
2023/06/27 07:44:27;;;;;;;6.50;2.07;;;17.60;99.90;;;;;;5010702;28;20470;-55
2023/06/27 07:46:54;;;;;;;7.60;2.10;;;17.70;99.90;;;;;;5005470;28;20514;-56
2023/06/27 07:49:20;;;;;;;6.83;2.53;;;17.70;99.90;;;;;;5012137;28;20578;-56
2023/06/27 07:51:51;;;;;;;19.17;3.10;;;17.80;99.90;;;;;;5012933;28;20535;-55
2023/06/27 07:54:17;;;;;;;8.43;2.27;;;17.90;99.90;;;;;;5012568;28;20870;-55
2023/06/27 07:56:46;;;;;;;10.80;2.60;;;17.70;99.90;;;;;;5007084;28;21039;-55
2023/06/27 07:59:13;;;;;;;5.97;2.13;;;17.80;99.90;;;;;;5008294;28;21044;-55
2023/06/27 08:01:40;;;;;;;8.60;2.53;;;17.80;99.90;;;;;;5008090;28;20554;-55
2023/06/27 08:04:06;;;;;;;13.60;2.57;;;17.90;99.90;;;;;;5008040;28;20479;-55
2023/06/27 08:06:33;;;;;;;9.83;2.73;;;18.00;99.90;;;;;;5010361;28;20502;-55
2023/06/27 08:09:00;;;;;;;8.27;2.50;;;18.20;99.90;;;;;;5005085;28;20484;-55
2023/06/27 08:11:26;;;;;;;14.77;2.23;;;18.30;99.90;;;;;;5003581;28;20550;-55
2023/06/27 08:13:54;;;;;;;5.53;1.73;;;18.30;99.90;;;;;;5005876;28;20882;-55
2023/06/27 08:16:21;;;;;;;3.50;1.50;;;18.20;99.90;;;;;;5000726;28;20470;-56
2023/06/27 08:18:48;;;;;;;4.77;1.90;;;18.20;28.50;;;;;;5003426;28;20581;-55
2023/06/27 08:21:14;;;;;;;3.70;1.83;;;18.40;33.60;;;;;;5010862;28;20563;-55
2023/06/27 08:23:42;;;;;;;17.50;2.00;;;18.40;34.00;;;;;;5000362;28;20546;-55
2023/06/27 08:26:08;;;;;;;11.03;1.83;;;18.30;35.00;;;;;;5000199;28;20483;-56
2023/06/27 08:28:35;;;;;;;8.00;2.63;;;18.30;24.40;;;;;;5001373;28;20567;-55
2023/06/27 08:31:03;;;;;;;5.23;1.77;;;18.10;30.40;;;;;;5000950;28;20519;-55
2023/06/27 08:33:30;;;;;;;5.87;1.47;;;18.10;37.50;;;;;;5006519;28;20551;-55
2023/06/27 08:35:56;;;;;;;7.27;2.20;;;18.00;37.50;;;;;;5007583;28;20886;-56
2023/06/27 08:38:24;;;;;;;6.20;1.50;;;18.20;34.30;;;;;;5010740;28;20483;-55
2023/06/27 08:40:54;;;;;;;6.30;1.63;;;18.50;63.40;;;;;;5009532;28;20472;-54
2023/06/27 08:43:21;;;;;;;7.70;1.90;;;18.70;73.80;;;;;;5006967;28;20500;-55
2023/06/27 08:45:49;;;;;;;6.43;2.43;;;18.80;65.30;;;;;;5008520;28;20490;-55
2023/06/27 08:48:18;;;;;;;3.60;1.60;;;18.70;81.80;;;;;;5009946;28;20921;-55
2023/06/27 08:50:45;;;;;;;10.87;1.63;;;18.70;99.90;;;;;;5002354;28;20464;-55
2023/06/27 08:53:14;;;;;;;5.40;1.23;;;18.70;99.90;;;;;;5010960;28;20448;-56
2023/06/27 08:55:46;;;;;;;7.73;1.63;;;18.90;99.90;;;;;;5006819;28;20459;-55
2023/06/27 08:58:15;;;;;;;6.83;1.90;;;19.00;94.80;;;;;;5010097;28;20561;-54
2023/06/27 09:00:43;;;;;;;8.33;1.30;;;19.20;99.90;;;;;;5004115;28;20484;-55
2023/06/27 09:03:11;;;;;;;6.77;1.70;;;19.40;99.90;;;;;;5009082;28;20567;-59
2023/06/27 09:05:39;;;;;;;5.90;1.43;;;19.50;99.90;;;;;;5009819;28;20547;-55
2023/06/27 09:08:06;;;;;;;4.60;1.70;;;19.50;99.90;;;;;;5011743;28;20463;-55
2023/06/27 09:10:33;;;;;;;3.70;1.80;;;19.60;99.90;;;;;;5010356;28;21074;-55
2023/06/27 09:13:00;;;;;;;11.70;1.17;;;19.80;99.90;;;;;;5009847;28;21005;-57
2023/06/27 09:15:27;;;;;;;3.67;1.50;;;20.00;99.90;;;;;;5012797;28;20491;-55
2023/06/27 09:17:54;;;;;;;6.53;1.80;;;19.80;99.90;;;;;;5013552;28;20504;-55
2023/06/27 09:20:21;;;;;;;3.33;1.50;;;19.60;99.90;;;;;;5011979;28;20543;-55
2023/06/27 09:22:50;;;;;;;5.83;1.73;;;19.50;99.90;;;;;;5008488;28;20464;-56
2023/06/27 09:25:19;;;;;;;12.23;1.37;;;19.40;99.90;;;;;;5010522;28;20547;-55
2023/06/27 09:27:46;;;;;;;6.13;1.70;;;19.30;99.90;;;;;;5013276;28;20490;-55
2023/06/27 09:30:13;;;;;;;4.10;1.10;;;19.20;99.90;;;;;;5012642;28;20570;-56
2023/06/27 09:32:53;;;;;;;6.20;1.60;;;18.40;99.90;;;;;;5012770;28;20554;-55
2023/06/27 09:35:21;;;;;;;3.17;1.40;;;17.80;99.90;;;;;;5012552;28;20473;-54
2023/06/27 09:37:49;;;;;;;4.07;1.60;;;17.30;80.60;;;;;;5010592;28;20523;-55
2023/06/27 09:40:19;;;;;;;5.13;1.83;;;17.30;53.80;;;;;;5009944;28;21049;-55
2023/06/27 09:42:50;;;;;;;8.03;2.00;;;17.60;60.20;;;;;;5005699;28;20459;-55
2023/06/27 09:45:17;;;;;;;7.40;1.60;;;18.10;99.90;;;;;;5010013;28;20467;-55
2023/06/27 09:47:44;;;;;;;3.47;1.30;;;18.60;99.90;;;;;;5009424;28;20528;-55
2023/06/27 09:50:11;;;;;;;4.47;1.83;;;19.10;99.90;;;;;;5011203;28;20567;-55
2023/06/27 09:52:37;;;;;;;9.70;1.73;;;19.20;99.90;;;;;;5014453;28;20464;-56
2023/06/27 09:55:16;;;;;;;7.20;1.63;;;19.50;99.90;;;;;;5013367;28;20533;-55
2023/06/27 09:57:43;;;;;;;11.00;1.77;;;19.20;99.90;;;;;;5008995;28;20563;-55
2023/06/27 10:00:12;;;;;;;4.27;1.40;;;19.60;99.90;;;;;;5008632;28;21005;-55
2023/06/27 10:02:39;;;;;;;2.40;1.10;;;19.80;99.90;;;;;;5011797;28;20471;-56
2023/06/27 10:05:05;;;;;;;5.63;1.63;;;20.10;99.90;;;;;;5023352;28;20981;-55
2023/06/27 10:07:32;;;;;;;3.77;1.70;;;20.20;99.90;;;;;;5027370;28;20494;-55
2023/06/27 10:09:59;;;;;;;4.00;1.50;;;20.00;99.90;;;;;;5031985;28;20570;-55
2023/06/27 10:12:27;;;;;;;5.53;2.13;;;19.40;99.90;;;;;;5029177;28;20475;-56
2023/06/27 10:14:55;;;;;;;2.90;1.17;;;19.30;99.90;;;;;;5023271;28;20470;-55
2023/06/27 10:17:23;;;;;;;6.10;1.40;;;19.50;99.90;;;;;;5026612;28;20491;-56
2023/06/27 10:19:50;;;;;;;3.13;1.57;;;19.80;99.90;;;;;;5013209;28;20488;-55
2023/06/27 10:22:19;;;;;;;2.47;1.40;;;19.80;99.90;;;;;;5010447;28;20558;-55
2023/06/27 10:24:48;;;;;;;5.27;1.60;;;19.20;64.30;;;;;;5012330;28;20518;-56
2023/06/27 10:27:20;;;;;;;3.40;1.40;;;18.40;30.50;;;;;;5012700;28;20483;-55
2023/06/27 10:29:48;;;;;;;2.30;1.20;;;17.70;99.90;;;;;;5010273;28;20545;-56
2023/06/27 10:32:17;;;;;;;2.77;1.63;;;17.10;99.90;;;;;;5006694;28;20464;-55
2023/06/27 10:34:44;;;;;;;2.03;1.23;;;17.00;99.90;;;;;;5012706;28;20540;-56
2023/06/27 10:37:12;;;;;;;3.60;1.37;;;16.90;71.90;;;;;;5012584;28;20464;-55
2023/06/27 10:39:40;;;;;;;3.27;1.40;;;16.90;60.70;;;;;;5013158;28;21045;-55
2023/06/27 10:42:15;;;;;;;1.33;1.17;;;16.80;78.90;;;;;;5011931;28;20544;-54
2023/06/27 10:45:06;;;;;;;5.53;1.50;;;16.80;74.20;;;;;;5009464;28;20490;-56
2023/06/27 10:47:35;;;;;;;4.40;1.43;;;16.90;68.40;;;;;;5008669;28;20542;-56
2023/06/27 10:50:05;;;;;;;5.20;1.50;;;17.10;74.80;;;;;;5011378;28;20480;-55
2023/06/27 10:52:32;;;;;;;4.93;1.10;;;17.40;85.60;;;;;;5007755;28;20468;-55
2023/06/27 10:55:18;;;;;;;3.90;1.10;;;17.80;78.80;;;;;;5004171;28;20496;-54
2023/06/27 10:57:48;;;;;;;6.93;1.40;;;18.40;99.90;;;;;;5007408;28;20490;-55
2023/06/27 11:00:23;;;;;;;5.93;1.60;;;18.90;99.90;;;;;;5007727;28;20460;-55
2023/06/27 11:02:53;;;;;;;2.30;1.20;;;19.40;47.10;;;;;;5006693;28;20471;-55
2023/06/27 11:05:23;;;;;;;1.37;1.00;;;19.90;54.80;;;;;;5005753;28;20459;-56
2023/06/27 11:07:54;;;;;;;1.37;1.00;;;20.10;99.90;;;;;;5008250;28;20495;-55
2023/06/27 11:10:24;;;;;;;3.33;1.10;;;20.60;99.90;;;;;;5008654;28;20567;-54
2023/06/27 11:12:52;;;;;;;4.83;1.07;;;20.80;99.90;;;;;;5007142;28;20497;-56
2023/06/27 11:15:20;;;;;;;1.90;1.00;;;20.80;99.90;;;;;;5006615;28;20924;-52
2023/06/27 11:17:46;;;;;;;2.63;1.73;;;21.20;99.90;;;;;;5005080;28;20586;-52
2023/06/27 11:20:13;;;;;;;2.37;1.17;;;21.10;99.90;;;;;;5007850;28;20467;-53
2023/06/27 11:22:40;;;;;;;4.63;1.10;;;21.10;99.90;;;;;;5009973;28;20572;-52
2023/06/27 11:25:14;;;;;;;4.20;1.63;;;21.30;99.90;;;;;;5011573;28;21015;-52
2023/06/27 11:27:41;;;;;;;3.37;0.90;;;21.40;99.90;;;;;;5009304;28;20913;-52
2023/06/27 11:30:08;;;;;;;7.10;1.17;;;21.00;99.90;;;;;;5010606;28;20566;-51
2023/06/27 11:32:36;;;;;;;3.43;1.60;;;21.10;99.90;;;;;;5014714;28;20498;-51
2023/06/27 11:35:06;;;;;;;12.37;1.10;;;21.30;99.90;;;;;;5012640;28;20440;-51
2023/06/27 11:37:33;;;;;;;4.43;1.60;;;21.50;99.90;;;;;;5010389;28;20518;-52
2023/06/27 11:40:07;;;;;;;20.53;1.60;;;21.60;99.90;;;;;;5012123;28;20456;-51
2023/06/27 11:42:35;;;;;;;1.63;1.37;;;21.60;99.90;;;;;;5006608;28;20506;-52
2023/06/27 11:45:02;;;;;;;2.40;1.30;;;21.40;99.90;;;;;;5004590;28;20437;-53
2023/06/27 11:47:30;;;;;;;3.20;1.47;;;21.50;99.90;;;;;;5011787;28;20487;-53
2023/06/27 11:50:07;;;;;;;4.47;1.10;;;21.90;99.90;;;;;;5008517;28;20518;-51
2023/06/27 11:52:35;;;;;;;4.60;1.50;;;21.60;99.90;;;;;;5007850;28;20495;-52
2023/06/27 11:55:03;;;;;;;4.40;0.77;;;21.20;99.90;;;;;;5006545;28;20462;-51
2023/06/27 11:57:42;;;;;;;3.40;1.27;;;20.10;99.90;;;;;;5011751;28;20506;-52
2023/06/27 12:00:13;;;;;;;4.13;1.43;;;19.30;99.90;;;;;;5011311;28;20494;-52
2023/06/27 12:02:40;;;;;;;5.80;1.60;;;17.80;99.90;;;;;;5002564;28;20459;-52
2023/06/27 12:05:15;;;;;;;3.70;1.27;;;16.30;67.20;;;;;;5011122;28;20523;-51
2023/06/27 12:07:42;;;;;;;5.33;1.80;;;15.70;44.10;;;;;;5004847;28;20882;-51
2023/06/27 12:10:09;;;;;;;3.40;1.10;;;15.30;99.90;;;;;;5005637;28;20571;-52
2023/06/27 12:12:40;;;;;;;3.90;1.20;;;15.00;99.90;;;;;;5010496;28;20468;-52
2023/06/27 12:15:14;;;;;;;4.10;1.30;;;14.90;99.90;;;;;;5008041;28;20539;-51
2023/06/27 12:17:54;;;;;;;4.00;1.13;;;14.90;99.90;;;;;;5006461;28;20491;-50
2023/06/27 12:20:22;;;;;;;4.47;1.20;;;14.80;99.90;;;;;;5006208;28;20589;-51
2023/06/27 12:22:48;;;;;;;2.97;1.30;;;15.00;99.90;;;;;;5010513;28;20555;-51
2023/06/27 12:25:15;;;;;;;2.93;1.00;;;15.40;99.90;;;;;;4998676;28;20501;-52
2023/06/27 12:27:41;;;;;;;6.63;0.90;;;15.80;99.90;;;;;;5010188;28;20512;-52
2023/06/27 12:30:10;;;;;;;6.10;1.43;;;16.30;99.90;;;;;;5006772;28;20584;-51
2023/06/27 12:32:37;;;;;;;1.73;0.97;;;16.80;99.90;;;;;;5006514;28;20464;-52
2023/06/27 12:35:05;;;;;;;7.10;1.60;;;17.40;99.90;;;;;;5003321;28;20547;-51
2023/06/27 12:37:34;;;;;;;2.63;1.10;;;17.70;99.90;;;;;;5003036;28;20495;-53
2023/06/27 12:40:01;;;;;;;4.10;1.27;;;18.20;99.90;;;;;;5006821;28;20721;-53
2023/06/27 12:42:27;;;;;;;6.40;1.40;;;19.00;23.10;;;;;;5006230;28;20475;-51
2023/06/27 12:44:55;;;;;;;2.03;1.07;;;19.90;99.90;;;;;;5009710;28;20467;-53
2023/06/27 12:47:22;;;;;;;3.00;1.57;;;20.00;95.20;;;;;;5011201;28;20472;-52